createdAt,value
2018-10-05T00:01:12.000Z,21.47
2018-10-05T00:03:40.808Z,22.00
2018-10-05T00:06:09.730Z,23.00
2018-10-05T00:08:38.789Z,19.57
2018-10-05T00:11:07.901Z,24.23
2018-10-05T00:13:36.828Z,20.20
2018-10-05T00:16:05.761Z,22.57
2018-10-05T00:18:34.557Z,22.80
2018-10-05T00:21:03.836Z,20.73
2018-10-05T00:23:32.679Z,23.90
2018-10-05T00:26:01.694Z,20.47
2018-10-05T00:28:30.557Z,24.03
2018-10-05T00:30:59.733Z,25.47
2018-10-05T00:33:28.610Z,23.57
2018-10-05T00:35:57.495Z,20.00
2018-10-05T00:38:26.454Z,25.00
2018-10-05T00:40:58.376Z,25.43
2018-10-05T00:43:27.696Z,24.00
2018-10-05T00:45:56.578Z,20.23
2018-10-05T00:48:25.468Z,23.93
2018-10-05T00:50:54.326Z,25.13
2018-10-05T00:53:23.251Z,26.20
2018-10-05T00:55:52.093Z,23.33
2018-10-05T00:58:21.003Z,25.30
2018-10-05T01:00:49.931Z,22.93
2018-10-05T01:03:18.844Z,24.63
2018-10-05T01:05:47.714Z,25.60
2018-10-05T01:08:16.888Z,26.80
2018-10-05T01:10:45.745Z,25.13
2018-10-05T01:13:14.613Z,25.37
2018-10-05T01:15:43.614Z,24.00
2018-10-05T01:18:12.490Z,24.37
2018-10-05T01:20:41.602Z,26.00
2018-10-05T01:23:10.530Z,28.40
2018-10-05T01:25:39.358Z,24.23
2018-10-05T01:28:08.532Z,23.17
2018-10-05T01:30:37.451Z,26.90
2018-10-05T01:33:06.455Z,25.23
2018-10-05T01:35:35.344Z,24.57
2018-10-05T01:38:04.213Z,24.93
2018-10-05T01:40:33.192Z,25.07
2018-10-05T01:43:02.071Z,30.40
2018-10-05T01:45:30.972Z,31.43
2018-10-05T01:47:59.821Z,25.67
2018-10-05T01:50:28.687Z,29.43
2018-10-05T01:52:57.565Z,31.67
2018-10-05T01:55:26.467Z,37.63
2018-10-05T01:57:55.302Z,31.30
2018-10-05T02:00:24.190Z,33.70
2018-10-05T02:02:53.326Z,33.47
2018-10-05T02:05:22.334Z,31.33
2018-10-05T02:07:51.192Z,28.83
2018-10-05T02:10:20.210Z,32.10
2018-10-05T02:12:49.048Z,31.20
2018-10-05T02:15:18.025Z,31.77
2018-10-05T02:17:46.898Z,31.03
2018-10-05T02:20:15.811Z,26.80
2018-10-05T02:22:44.612Z,33.90
2018-10-05T02:25:13.439Z,29.93
2018-10-05T02:27:42.247Z,27.87
2018-10-05T02:30:11.157Z,30.13
2018-10-05T02:32:40.043Z,29.50
2018-10-05T02:35:08.972Z,27.07
2018-10-05T02:37:37.886Z,31.10
2018-10-05T02:40:06.764Z,29.53
2018-10-05T02:42:35.724Z,31.97
2018-10-05T02:45:04.710Z,26.93
2018-10-05T02:47:33.619Z,33.00
2018-10-05T02:50:02.478Z,29.40
2018-10-05T02:52:31.332Z,30.07
2018-10-05T02:55:00.244Z,32.30
2018-10-05T02:57:29.095Z,33.43
2018-10-05T02:59:57.872Z,36.10
2018-10-05T03:02:32.732Z,34.53
2018-10-05T03:05:01.804Z,36.10
2018-10-05T03:07:31.623Z,37.53
2018-10-05T03:10:01.459Z,34.47
2018-10-05T03:12:30.288Z,32.57
2018-10-05T03:14:59.077Z,29.97
2018-10-05T03:17:28.042Z,31.67
2018-10-05T03:19:57.320Z,32.50
2018-10-05T03:22:26.183Z,30.87
2018-10-05T03:24:54.976Z,33.17
2018-10-05T03:27:23.859Z,29.77
2018-10-05T03:29:52.840Z,29.83
2018-10-05T03:32:21.680Z,31.73
2018-10-05T03:34:50.544Z,28.80
2018-10-05T03:37:19.393Z,27.90
2018-10-05T03:39:48.239Z,27.57
2018-10-05T03:42:17.136Z,28.10
2018-10-05T03:44:46.049Z,29.77
2018-10-05T03:47:14.887Z,30.83
2018-10-05T03:49:43.773Z,25.93
2018-10-05T03:52:12.652Z,28.90
2018-10-05T03:54:41.540Z,26.93
2018-10-05T03:57:10.663Z,27.97
2018-10-05T03:59:39.573Z,27.87
2018-10-05T04:02:08.420Z,25.00
2018-10-05T04:04:37.305Z,27.83
2018-10-05T04:07:06.369Z,25.70
2018-10-05T04:09:35.269Z,30.50
2018-10-05T04:12:04.166Z,25.43
2018-10-05T04:14:33.024Z,31.27
2018-10-05T04:17:01.850Z,27.47
2018-10-05T04:19:30.948Z,24.53
2018-10-05T04:21:59.812Z,26.13
2018-10-05T04:24:28.675Z,25.50
2018-10-05T04:26:57.565Z,29.70
2018-10-05T04:29:26.420Z,27.30
2018-10-05T04:31:55.528Z,28.70
2018-10-05T04:34:24.367Z,27.80
2018-10-05T04:36:53.229Z,25.87
2018-10-05T04:39:22.137Z,27.93
2018-10-05T04:41:51.131Z,25.67
2018-10-05T04:44:19.997Z,25.10
2018-10-05T04:46:48.925Z,25.07
2018-10-05T04:49:17.760Z,25.67
2018-10-05T04:51:46.665Z,25.50
2018-10-05T04:54:15.548Z,28.87
2018-10-05T04:56:44.825Z,29.27
2018-10-05T04:59:13.647Z,27.00
2018-10-05T05:01:43.008Z,27.30
2018-10-05T05:04:11.833Z,31.30
2018-10-05T05:06:40.757Z,32.70
2018-10-05T05:09:10.042Z,30.17
2018-10-05T05:11:38.954Z,26.13
2018-10-05T05:14:07.957Z,29.90
2018-10-05T05:16:36.801Z,28.90
2018-10-05T05:19:06.311Z,33.10
2018-10-05T05:21:35.332Z,29.03
2018-10-05T05:24:04.200Z,30.00
2018-10-05T05:26:33.056Z,27.63
2018-10-05T05:29:01.937Z,27.87
2018-10-05T05:31:30.780Z,21.20
2018-10-05T05:33:59.773Z,27.37
2018-10-05T05:36:28.612Z,24.77
2018-10-05T05:38:57.489Z,26.90
2018-10-05T05:41:26.314Z,24.50
2018-10-05T05:43:55.208Z,23.20
2018-10-05T05:46:24.112Z,23.43
2018-10-05T05:48:53.037Z,25.33
2018-10-05T05:51:21.895Z,26.37
2018-10-05T05:53:50.864Z,23.67
2018-10-05T05:56:19.684Z,25.13
2018-10-05T05:58:48.654Z,22.47
2018-10-05T06:01:17.538Z,25.60
2018-10-05T06:03:46.424Z,25.90
2018-10-05T06:06:15.326Z,23.77
2018-10-05T06:08:44.607Z,26.77
2018-10-05T06:11:13.868Z,29.57
2018-10-05T06:13:42.689Z,29.23
2018-10-05T06:16:11.665Z,25.30
2018-10-05T06:18:40.449Z,25.60
2018-10-05T06:21:09.347Z,24.97
2018-10-05T06:23:38.322Z,26.63
2018-10-05T06:26:07.256Z,25.43
2018-10-05T06:28:36.089Z,22.23
2018-10-05T06:31:05.054Z,24.50
2018-10-05T06:33:33.991Z,28.90
2018-10-05T06:36:02.958Z,24.23
2018-10-05T06:38:31.838Z,23.03
2018-10-05T06:41:00.781Z,24.43
2018-10-05T06:43:29.672Z,23.67
2018-10-05T06:45:58.567Z,22.87
2018-10-05T06:48:27.506Z,24.33
2018-10-05T06:50:56.472Z,24.47
2018-10-05T06:53:25.678Z,27.27
2018-10-05T06:55:54.586Z,24.10
2018-10-05T06:58:23.399Z,23.37
2018-10-05T07:00:52.416Z,23.63
2018-10-05T07:03:23.975Z,24.13
2018-10-05T07:05:53.462Z,22.93
2018-10-05T07:08:22.575Z,20.77
2018-10-05T07:10:51.557Z,19.47
2018-10-05T07:13:20.518Z,23.57
2018-10-05T07:15:49.343Z,19.30
2018-10-05T07:18:18.202Z,20.73
2018-10-05T07:20:47.100Z,19.33
2018-10-05T07:23:15.944Z,19.93
2018-10-05T07:25:45.472Z,19.13
2018-10-05T07:28:14.403Z,20.97
2018-10-05T07:30:43.263Z,23.70
2018-10-05T07:33:12.131Z,17.70
2018-10-05T07:35:41.006Z,16.00
2018-10-05T07:38:09.975Z,18.53
2018-10-05T07:40:38.830Z,18.53
2018-10-05T07:43:07.764Z,16.40
2018-10-05T07:45:36.570Z,15.73
2018-10-05T07:48:05.567Z,14.83
2018-10-05T07:50:34.533Z,13.60
2018-10-05T07:53:03.665Z,15.07
2018-10-05T07:55:32.532Z,17.50
2018-10-05T07:58:02.049Z,12.50
2018-10-05T08:00:30.893Z,16.57
2018-10-05T08:02:59.854Z,15.27
2018-10-05T08:05:28.665Z,12.97
2018-10-05T08:07:57.645Z,12.40
2018-10-05T08:10:26.538Z,11.97
2018-10-05T08:12:55.404Z,14.57
2018-10-05T08:15:24.392Z,11.00
2018-10-05T08:17:53.235Z,18.10
2018-10-05T08:20:22.215Z,13.37
2018-10-05T08:22:51.131Z,13.63
2018-10-05T08:25:20.057Z,10.77
2018-10-05T08:27:48.981Z,15.97
2018-10-05T08:30:17.856Z,12.57
2018-10-05T08:32:46.694Z,11.97
2018-10-05T08:35:15.609Z,13.07
2018-10-05T08:37:44.437Z,11.33
2018-10-05T08:40:13.399Z,12.70
2018-10-05T08:42:42.228Z,12.87
2018-10-05T08:45:11.176Z,11.23
2018-10-05T08:47:40.103Z,14.40
2018-10-05T08:50:09.038Z,11.63
2018-10-05T08:52:38.011Z,11.13
2018-10-05T08:55:07.061Z,11.87
2018-10-05T08:57:35.890Z,13.87
2018-10-05T09:00:05.376Z,10.40
2018-10-05T09:02:34.300Z,11.50
2018-10-05T09:05:03.379Z,10.87
2018-10-05T09:07:32.193Z,12.63
2018-10-05T09:10:00.969Z,12.53
2018-10-05T09:12:29.857Z,13.37
2018-10-05T09:14:59.017Z,11.27
2018-10-05T09:17:28.037Z,12.17
2018-10-05T09:19:56.890Z,11.53
2018-10-05T09:22:25.857Z,11.13
2018-10-05T09:24:55.161Z,13.43
2018-10-05T09:27:24.053Z,12.10
2018-10-05T09:29:52.962Z,12.40
2018-10-05T09:32:22.072Z,13.70
2018-10-05T09:34:50.903Z,12.30
2018-10-05T09:37:19.976Z,11.07
2018-10-05T09:39:49.075Z,12.40
2018-10-05T09:42:18.080Z,12.27
2018-10-05T09:44:46.965Z,10.67
2018-10-05T09:47:15.928Z,10.60
2018-10-05T09:49:44.734Z,9.37
2018-10-05T09:52:14.006Z,9.57
2018-10-05T09:54:43.143Z,8.53
2018-10-05T09:57:12.020Z,13.77
2018-10-05T09:59:41.256Z,10.23
2018-10-05T10:02:22.652Z,17.40
2018-10-05T10:04:51.578Z,12.47
2018-10-05T10:07:20.470Z,10.73
2018-10-05T10:09:49.342Z,10.00
2018-10-05T10:12:18.585Z,11.83
2018-10-05T10:14:47.500Z,9.23
2018-10-05T10:17:16.407Z,14.13
2018-10-05T10:19:45.237Z,12.70
2018-10-05T10:22:14.105Z,10.87
2018-10-05T10:24:43.009Z,10.13
2018-10-05T10:27:11.865Z,11.50
2018-10-05T10:29:40.788Z,9.57
2018-10-05T10:32:09.633Z,12.57
2018-10-05T10:34:38.521Z,10.63
2018-10-05T10:37:07.340Z,9.70
2018-10-05T10:39:36.220Z,12.17
2018-10-05T10:42:05.088Z,9.53
2018-10-05T10:44:33.940Z,11.50
2018-10-05T10:47:02.841Z,12.90
2018-10-05T10:49:31.698Z,12.27
2018-10-05T10:52:00.710Z,9.47
2018-10-05T10:54:29.715Z,11.80
2018-10-05T10:56:58.583Z,9.60
2018-10-05T10:59:27.445Z,8.27
2018-10-05T11:01:56.305Z,7.63
2018-10-05T11:04:25.543Z,8.70
2018-10-05T11:06:54.440Z,9.60
2018-10-05T11:09:23.313Z,9.50
2018-10-05T11:11:52.256Z,11.10
2018-10-05T11:14:21.120Z,10.83
2018-10-05T11:16:50.047Z,8.67
2018-10-05T11:19:18.965Z,11.23
2018-10-05T11:21:48.207Z,10.53
2018-10-05T11:24:17.024Z,9.77
2018-10-05T11:26:46.109Z,8.77
2018-10-05T11:29:14.971Z,11.17
2018-10-05T11:31:43.899Z,6.83
2018-10-05T11:34:12.721Z,10.50
2018-10-05T11:36:41.745Z,11.27
2018-10-05T11:39:10.592Z,9.80
2018-10-05T11:41:39.474Z,7.77
2018-10-05T11:44:08.350Z,9.13
2018-10-05T11:46:37.220Z,6.53
2018-10-05T11:49:06.224Z,7.27
2018-10-05T11:51:35.121Z,11.53
2018-10-05T11:54:04.036Z,6.43
2018-10-05T11:56:33.091Z,7.37
2018-10-05T11:59:01.915Z,9.07
2018-10-05T12:01:30.844Z,8.17
2018-10-05T12:03:59.684Z,7.87
2018-10-05T12:06:28.545Z,8.33
2018-10-05T12:08:57.485Z,7.63
2018-10-05T12:11:26.477Z,8.37
2018-10-05T12:13:55.497Z,6.83
2018-10-05T12:16:24.319Z,10.63
2018-10-05T12:18:53.196Z,8.80
2018-10-05T12:21:22.135Z,9.47
2018-10-05T12:23:51.060Z,7.43
2018-10-05T12:26:19.976Z,6.60
2018-10-05T12:28:48.889Z,6.73
2018-10-05T12:31:17.750Z,6.63
2018-10-05T12:33:46.777Z,5.90
2018-10-05T12:36:15.685Z,8.83
2018-10-05T12:38:44.632Z,6.63
2018-10-05T12:41:13.449Z,6.97
2018-10-05T12:43:42.619Z,8.40
2018-10-05T12:46:11.564Z,6.07
2018-10-05T12:48:40.476Z,8.53
2018-10-05T12:51:09.300Z,6.73
2018-10-05T12:53:38.116Z,4.23
2018-10-05T12:56:07.000Z,5.93
2018-10-05T12:58:35.911Z,5.07
2018-10-05T13:01:04.838Z,9.13
2018-10-05T13:03:33.764Z,6.37
2018-10-05T13:06:02.617Z,4.70
2018-10-05T13:08:31.435Z,9.27
2018-10-05T13:11:00.452Z,7.03
2018-10-05T13:13:29.315Z,6.93
2018-10-05T13:15:58.200Z,6.07
2018-10-05T13:18:27.029Z,3.53
2018-10-05T13:20:55.921Z,5.77
2018-10-05T13:23:24.792Z,4.33
2018-10-05T13:25:53.858Z,4.07
2018-10-05T13:28:22.810Z,7.60
2018-10-05T13:30:51.627Z,4.70
2018-10-05T13:33:20.424Z,5.87
2018-10-05T13:35:49.396Z,5.00
2018-10-05T13:38:18.234Z,6.47
2018-10-05T13:40:47.102Z,4.03
2018-10-05T13:43:16.233Z,5.43
2018-10-05T13:45:45.091Z,6.23
2018-10-05T13:48:13.954Z,6.13
2018-10-05T13:50:42.924Z,5.93
2018-10-05T13:53:11.763Z,5.03
2018-10-05T13:55:40.654Z,5.83
2018-10-05T13:58:09.507Z,4.60
2018-10-05T14:00:38.403Z,5.93
2018-10-05T14:03:07.244Z,3.63
2018-10-05T14:05:36.045Z,4.83
2018-10-05T14:08:05.294Z,7.53
2018-10-05T14:10:34.098Z,5.10
2018-10-05T14:13:03.081Z,3.10
2018-10-05T14:15:31.933Z,2.77
2018-10-05T14:18:00.851Z,5.40
2018-10-05T14:20:29.669Z,4.77
2018-10-05T14:22:58.567Z,4.13
2018-10-05T14:25:27.539Z,2.73
2018-10-05T14:27:56.413Z,3.97
2018-10-05T14:30:25.257Z,2.90
2018-10-05T14:32:54.159Z,6.17
2018-10-05T14:35:23.003Z,5.63
2018-10-05T14:37:52.234Z,2.90
2018-10-05T14:40:21.014Z,3.70
2018-10-05T14:42:49.864Z,4.50
2018-10-05T14:45:18.693Z,5.53
2018-10-05T14:47:47.511Z,4.70
2018-10-05T14:50:16.401Z,3.70
2018-10-05T14:52:45.282Z,6.40
2018-10-05T14:55:14.093Z,3.63
2018-10-05T14:57:43.440Z,5.17
2018-10-05T15:00:12.247Z,2.90
2018-10-05T15:02:41.223Z,5.13
2018-10-05T15:05:10.431Z,4.40
2018-10-05T15:07:39.229Z,5.07
2018-10-05T15:10:08.181Z,4.67
2018-10-05T15:12:37.110Z,3.47
2018-10-05T15:15:06.802Z,5.70
2018-10-05T15:17:35.642Z,4.03
2018-10-05T15:20:04.917Z,4.60
2018-10-05T15:22:33.846Z,2.67
2018-10-05T15:25:02.707Z,3.83
2018-10-05T15:27:31.961Z,2.00
2018-10-05T15:30:00.836Z,5.60
2018-10-05T15:32:29.790Z,3.10
2018-10-05T15:34:58.639Z,6.10
2018-10-05T15:37:27.469Z,6.30
2018-10-05T15:39:56.430Z,3.30
2018-10-05T15:42:25.307Z,2.40
2018-10-05T15:44:54.175Z,4.00
2018-10-05T15:47:23.055Z,2.30
2018-10-05T15:49:51.926Z,6.67
2018-10-05T15:52:20.841Z,5.53
2018-10-05T15:54:49.674Z,8.00
2018-10-05T15:57:18.522Z,6.17
2018-10-05T15:59:47.371Z,4.43
2018-10-05T16:02:16.285Z,5.80
2018-10-05T16:04:45.209Z,4.10
2018-10-05T16:07:14.084Z,3.83
2018-10-05T16:09:42.987Z,5.73
2018-10-05T16:12:11.950Z,3.53
2018-10-05T16:14:40.807Z,3.30
2018-10-05T16:17:09.766Z,3.83
2018-10-05T16:19:38.644Z,4.67
2018-10-05T16:22:07.501Z,8.07
2018-10-05T16:24:39.361Z,7.53
2018-10-05T16:27:08.683Z,7.30
2018-10-05T16:29:37.883Z,5.33
2018-10-05T16:32:07.835Z,6.67
2018-10-05T16:34:36.689Z,9.27
2018-10-05T16:37:05.993Z,4.43
2018-10-05T16:39:35.111Z,6.80
2018-10-05T16:42:04.560Z,9.97
2018-10-05T16:44:33.443Z,8.63
2018-10-05T16:47:02.375Z,8.63
2018-10-05T16:49:31.212Z,6.67
2018-10-05T16:52:00.135Z,4.90
2018-10-05T16:54:29.017Z,5.57
2018-10-05T16:56:57.943Z,8.33
2018-10-05T16:59:26.810Z,6.73
2018-10-05T17:01:55.923Z,6.10
2018-10-05T17:04:24.931Z,3.70
2018-10-05T17:06:54.105Z,7.97
2018-10-05T17:09:23.000Z,9.60
2018-10-05T17:11:51.873Z,7.27
2018-10-05T17:14:20.735Z,7.67
2018-10-05T17:16:49.560Z,7.47
2018-10-05T17:19:18.481Z,5.47
2018-10-05T17:21:47.296Z,8.23
2018-10-05T17:24:16.178Z,8.65
2018-10-05T17:26:45.020Z,11.97
2018-10-05T17:29:14.216Z,19.03
2018-10-05T17:31:43.335Z,7.40
2018-10-05T17:34:12.290Z,15.47
2018-10-05T17:36:41.175Z,6.43
2018-10-05T17:39:10.644Z,4.23
2018-10-05T17:41:39.555Z,9.57
2018-10-05T17:44:08.731Z,67.40
2018-10-05T17:46:37.593Z,18.20
2018-10-05T17:49:07.073Z,15.50
2018-10-05T17:51:36.669Z,9.90
2018-10-05T17:54:05.652Z,16.77
2018-10-05T17:56:35.079Z,5.50
2018-10-05T17:59:03.888Z,8.10
2018-10-05T18:01:32.806Z,14.40
2018-10-05T18:04:01.745Z,19.13
2018-10-05T18:06:30.891Z,14.77
2018-10-05T18:08:59.853Z,10.23
2018-10-05T18:11:28.722Z,12.30
2018-10-05T18:13:58.241Z,8.40
2018-10-05T18:16:27.137Z,7.50
2018-10-05T18:18:55.963Z,10.87
2018-10-05T18:21:26.088Z,30.47
2018-10-05T18:23:55.396Z,38.40
2018-10-05T18:26:25.528Z,33.77
2018-10-05T18:28:54.400Z,16.00
2018-10-05T18:31:23.280Z,6.00
2018-10-05T18:33:52.798Z,17.23
2018-10-05T18:36:21.747Z,22.43
2018-10-05T18:38:50.561Z,23.97
2018-10-05T18:41:20.054Z,9.77
2018-10-05T18:43:48.835Z,12.27
2018-10-05T18:46:17.856Z,12.23
2018-10-05T18:48:46.677Z,10.53
2018-10-05T18:51:15.642Z,9.17
2018-10-05T18:53:45.132Z,9.00
2018-10-05T18:56:31.153Z,12.37
2018-10-05T18:58:59.988Z,17.87
2018-10-05T19:01:28.851Z,15.30
2018-10-05T19:03:57.757Z,10.40
2018-10-05T19:06:27.525Z,8.80
2018-10-05T19:08:56.808Z,10.60
2018-10-05T19:11:25.863Z,8.60
2018-10-05T19:13:55.337Z,11.37
2018-10-05T19:16:25.441Z,9.60
2018-10-05T19:18:55.330Z,13.30
2018-10-05T19:21:24.218Z,11.63
2018-10-05T19:23:53.204Z,8.20
2018-10-05T19:26:23.213Z,14.97
2018-10-05T19:28:51.935Z,9.73
2018-10-05T19:31:20.877Z,13.40
2018-10-05T19:33:49.717Z,12.97
2018-10-05T19:36:18.603Z,13.53
2018-10-05T19:38:48.278Z,15.97
2018-10-05T19:41:17.672Z,11.53
2018-10-05T19:43:46.692Z,14.40
2018-10-05T19:46:15.590Z,14.70
2018-10-05T19:48:44.552Z,14.40
2018-10-05T19:51:13.500Z,12.20
2018-10-05T19:53:42.531Z,13.00
2018-10-05T19:56:13.257Z,10.63
2018-10-05T19:58:42.202Z,14.83
2018-10-05T20:01:11.699Z,11.10
2018-10-05T20:03:40.584Z,12.80
2018-10-05T20:06:09.456Z,11.80
2018-10-05T20:08:38.321Z,8.77
2018-10-05T20:11:08.476Z,8.60
2018-10-05T20:13:37.439Z,13.47
2018-10-05T20:16:06.375Z,14.60
2018-10-05T20:18:35.284Z,10.07
2018-10-05T20:21:04.093Z,8.63
2018-10-05T20:23:33.341Z,10.73
2018-10-05T20:26:02.956Z,12.20
2018-10-05T20:28:32.161Z,8.73
2018-10-05T20:31:01.074Z,15.37
2018-10-05T20:33:30.125Z,8.87
2018-10-05T20:35:59.033Z,13.50
2018-10-05T20:38:27.961Z,11.77
2018-10-05T20:40:56.928Z,10.53
2018-10-05T20:43:25.733Z,7.97
2018-10-05T20:45:54.690Z,10.30
2018-10-05T20:48:23.500Z,11.23
2018-10-05T20:50:52.459Z,9.83
2018-10-05T20:53:21.294Z,13.33
2018-10-05T20:55:50.140Z,10.17
2018-10-05T20:58:19.036Z,10.87
2018-10-05T21:00:47.844Z,9.13
2018-10-05T21:03:16.801Z,9.93
2018-10-05T21:05:45.800Z,11.43
2018-10-05T21:08:15.760Z,9.80
2018-10-05T21:10:44.749Z,10.90
2018-10-05T21:13:13.730Z,11.60
2018-10-05T21:15:42.625Z,13.30
2018-10-05T21:18:11.500Z,14.37
2018-10-05T21:20:40.300Z,12.03
2018-10-05T21:23:09.176Z,13.37
2018-10-05T21:25:37.986Z,11.37
2018-10-05T21:28:07.545Z,12.00
2018-10-05T21:30:36.396Z,11.93
2018-10-05T21:33:05.364Z,15.30
2018-10-05T21:35:34.299Z,19.17
2018-10-05T21:38:03.248Z,15.33
2018-10-05T21:40:32.128Z,22.03
2018-10-05T21:43:01.277Z,23.07
2018-10-05T21:45:30.127Z,19.00
2018-10-05T21:47:59.051Z,18.50
2018-10-05T21:50:27.875Z,17.50
2018-10-05T21:52:56.923Z,14.40
2018-10-05T21:55:25.787Z,12.93
2018-10-05T21:57:54.620Z,12.57
2018-10-05T22:00:23.984Z,15.33
2018-10-05T22:02:52.906Z,16.27
2018-10-05T22:05:21.811Z,15.57
2018-10-05T22:07:50.695Z,12.87
2018-10-05T22:10:19.549Z,13.77
2018-10-05T22:12:48.484Z,13.90
2018-10-05T22:15:17.380Z,14.47
2018-10-05T22:17:46.342Z,14.73
2018-10-05T22:20:15.205Z,11.63
2018-10-05T22:22:44.022Z,13.47
2018-10-05T22:25:13.196Z,11.50
2018-10-05T22:27:42.003Z,15.83
2018-10-05T22:30:10.937Z,14.73
2018-10-05T22:32:39.758Z,12.87
2018-10-05T22:35:08.691Z,14.97
2018-10-05T22:37:37.615Z,15.30
2018-10-05T22:40:06.659Z,13.67
2018-10-05T22:42:35.528Z,13.43
2018-10-05T22:45:09.361Z,15.67
2018-10-05T22:47:38.264Z,14.57
2018-10-05T22:50:07.202Z,12.50
2018-10-05T22:52:36.139Z,13.37
2018-10-05T22:55:05.121Z,12.80
2018-10-05T22:57:33.944Z,14.77
2018-10-05T23:00:02.877Z,12.70
2018-10-05T23:02:31.741Z,14.67
2018-10-05T23:05:01.208Z,13.90
2018-10-05T23:07:30.066Z,13.17
2018-10-05T23:09:58.926Z,13.20
2018-10-05T23:12:27.862Z,12.30
2018-10-05T23:14:56.770Z,9.47
2018-10-05T23:17:25.733Z,13.00
2018-10-05T23:19:54.557Z,12.03
2018-10-05T23:22:23.418Z,19.93
2018-10-05T23:24:52.343Z,13.43
2018-10-05T23:27:21.224Z,12.77
2018-10-05T23:29:50.142Z,14.57
2018-10-05T23:32:19.027Z,11.57
2018-10-05T23:34:47.845Z,11.73
2018-10-05T23:37:16.799Z,11.27
2018-10-05T23:39:45.621Z,14.17
2018-10-05T23:42:14.568Z,9.60
2018-10-05T23:44:43.409Z,13.30
2018-10-05T23:47:12.351Z,11.07
2018-10-05T23:49:41.187Z,10.23
2018-10-05T23:52:52.107Z,12.00
2018-10-05T23:55:21.118Z,9.97
2018-10-05T23:57:50.058Z,10.70
